createdAt,value
2023-01-18T00:01:15.805Z,15.51
2023-01-18T00:03:42.708Z,15.32
2023-01-18T00:06:10.952Z,15.40
2023-01-18T00:08:39.547Z,15.40
2023-01-18T00:11:07.605Z,15.58
2023-01-18T00:13:35.044Z,15.16
2023-01-18T00:16:11.370Z,15.31
2023-01-18T00:18:39.283Z,15.25
2023-01-18T00:21:08.802Z,15.44
2023-01-18T00:23:36.203Z,15.35
2023-01-18T00:26:06.313Z,15.59
2023-01-18T00:28:34.041Z,15.72
2023-01-18T00:31:01.195Z,15.57
2023-01-18T00:33:28.140Z,15.62
2023-01-18T00:35:59.473Z,15.80
2023-01-18T00:38:26.688Z,15.56
2023-01-18T00:40:53.516Z,15.33
2023-01-18T00:43:39.068Z,15.57
2023-01-18T00:46:09.777Z,15.46
2023-01-18T00:48:38.995Z,15.60
2023-01-18T00:51:07.489Z,15.54
2023-01-18T00:53:35.312Z,15.53
2023-01-18T00:56:02.127Z,15.50
2023-01-18T00:58:29.100Z,15.88
2023-01-18T01:00:56.180Z,15.95
2023-01-18T01:03:23.135Z,15.68
2023-01-18T01:06:08.506Z,15.74
2023-01-18T01:08:35.603Z,15.83
2023-01-18T01:11:11.348Z,16.00
2023-01-18T01:13:57.219Z,15.69
2023-01-18T01:16:43.060Z,15.97
2023-01-18T01:19:28.357Z,15.93
2023-01-18T01:22:13.770Z,15.51
2023-01-18T01:24:59.307Z,15.63
2023-01-18T01:27:26.295Z,15.37
2023-01-18T01:29:53.267Z,15.79
2023-01-18T01:32:20.177Z,15.71
2023-01-18T01:34:46.996Z,15.85
2023-01-18T01:37:13.876Z,15.86
2023-01-18T01:39:40.723Z,15.82
2023-01-18T01:42:11.439Z,16.12
2023-01-18T01:44:43.508Z,16.58
2023-01-18T01:47:17.859Z,16.42
2023-01-18T01:49:52.449Z,16.50
2023-01-18T01:52:29.824Z,16.34
2023-01-18T01:55:27.364Z,16.06
2023-01-18T01:58:02.318Z,16.27
2023-01-18T02:00:29.918Z,16.12
2023-01-18T02:03:03.544Z,16.03
2023-01-18T02:05:32.221Z,16.33
2023-01-18T02:08:01.593Z,16.11
2023-01-18T02:10:30.287Z,16.08
2023-01-18T02:12:59.245Z,15.90
2023-01-18T02:15:37.602Z,16.00
2023-01-18T02:18:12.460Z,15.96
2023-01-18T02:20:48.510Z,16.01
2023-01-18T02:23:53.004Z,16.10
2023-01-18T02:26:50.768Z,16.10
2023-01-18T02:29:53.782Z,15.82
2023-01-18T02:32:20.604Z,15.72
2023-01-18T02:34:58.499Z,15.75
2023-01-18T02:37:37.401Z,15.97
2023-01-18T02:40:11.375Z,16.04
2023-01-18T02:42:58.521Z,16.19
2023-01-18T02:45:50.912Z,15.94
2023-01-18T02:48:20.841Z,15.77
2023-01-18T02:50:47.887Z,15.78
2023-01-18T02:53:15.406Z,15.67
2023-01-18T02:56:01.134Z,15.76
2023-01-18T02:58:51.366Z,16.06
2023-01-18T03:01:48.874Z,16.09
2023-01-18T03:04:21.797Z,16.03
2023-01-18T03:06:57.529Z,15.88
2023-01-18T03:09:27.276Z,15.87
2023-01-18T03:12:49.607Z,15.80
2023-01-18T03:15:29.121Z,16.15
2023-01-18T03:18:07.503Z,16.12
2023-01-18T03:20:40.662Z,16.28
2023-01-18T03:23:36.057Z,16.38
2023-01-18T03:26:06.387Z,16.24
2023-01-18T03:29:03.573Z,16.12
2023-01-18T03:32:22.639Z,16.31
2023-01-18T03:35:00.148Z,16.44
2023-01-18T03:37:29.472Z,16.29
2023-01-18T03:40:09.993Z,16.21
2023-01-18T03:43:04.460Z,16.28
2023-01-18T03:45:42.036Z,16.33
2023-01-18T03:48:10.333Z,16.35
2023-01-18T03:50:53.152Z,16.57
2023-01-18T03:53:32.740Z,16.65
2023-01-18T03:56:07.030Z,16.76
2023-01-18T03:58:36.619Z,16.68
2023-01-18T04:01:04.725Z,16.33
2023-01-18T04:03:32.889Z,15.84
2023-01-18T04:06:01.322Z,15.96
2023-01-18T04:08:28.482Z,15.94
2023-01-18T04:10:55.327Z,15.93
2023-01-18T04:13:22.387Z,15.89
2023-01-18T04:15:49.510Z,15.98
2023-01-18T04:18:16.586Z,16.05
2023-01-18T04:20:43.523Z,15.88
2023-01-18T04:23:11.084Z,15.87
2023-01-18T04:25:40.882Z,15.69
2023-01-18T04:28:08.239Z,15.84
2023-01-18T04:30:35.158Z,15.74
2023-01-18T04:33:02.167Z,15.78
2023-01-18T04:35:29.009Z,15.73
2023-01-18T04:37:55.830Z,15.95
2023-01-18T04:40:22.721Z,16.05
2023-01-18T04:42:53.932Z,16.22
2023-01-18T04:45:21.014Z,16.51
2023-01-18T04:47:47.905Z,16.34
2023-01-18T04:50:14.882Z,16.15
2023-01-18T04:52:41.776Z,16.04
2023-01-18T04:55:09.164Z,16.04
2023-01-18T04:57:36.104Z,16.11
2023-01-18T05:00:03.554Z,16.13
2023-01-18T05:02:30.414Z,16.20
2023-01-18T05:04:57.266Z,15.96
2023-01-18T05:07:27.373Z,15.95
2023-01-18T05:09:54.239Z,15.78
2023-01-18T05:12:21.147Z,15.76
2023-01-18T05:14:48.019Z,15.86
2023-01-18T05:17:14.941Z,15.79
2023-01-18T05:19:41.852Z,15.79
2023-01-18T05:22:08.835Z,15.66
2023-01-18T05:24:36.659Z,15.83
2023-01-18T05:27:03.665Z,15.95
2023-01-18T05:29:30.505Z,16.05
2023-01-18T05:31:57.466Z,15.98
2023-01-18T05:34:24.450Z,16.14
2023-01-18T05:36:51.431Z,16.09
2023-01-18T05:39:18.320Z,16.01
2023-01-18T05:41:45.226Z,16.24
2023-01-18T05:44:12.090Z,16.01
2023-01-18T05:46:39.316Z,15.97
2023-01-18T05:49:06.327Z,16.10
2023-01-18T05:51:35.154Z,15.99
2023-01-18T05:54:02.093Z,16.10
2023-01-18T05:56:28.946Z,16.19
2023-01-18T05:58:55.838Z,16.13
2023-01-18T06:01:22.797Z,16.13
2023-01-18T06:03:49.717Z,16.13
2023-01-18T06:06:16.884Z,16.29
2023-01-18T06:08:44.055Z,16.19
2023-01-18T06:11:11.147Z,16.10
2023-01-18T06:13:38.014Z,16.23
2023-01-18T06:16:05.370Z,16.29
2023-01-18T06:18:33.789Z,16.30
2023-01-18T06:21:04.277Z,16.18
2023-01-18T06:23:31.672Z,16.14
2023-01-18T06:25:58.838Z,16.10
2023-01-18T06:28:26.196Z,16.12
2023-01-18T06:30:55.230Z,16.07
2023-01-18T06:33:25.755Z,16.27
2023-01-18T06:35:52.696Z,16.10
2023-01-18T06:38:20.777Z,16.47
2023-01-18T06:40:47.788Z,16.49
2023-01-18T06:43:16.079Z,16.49
2023-01-18T06:45:43.011Z,16.68
2023-01-18T06:48:09.900Z,16.34
2023-01-18T06:50:36.832Z,16.32
2023-01-18T06:53:03.937Z,16.64
2023-01-18T06:55:30.908Z,16.95
2023-01-18T06:57:57.872Z,16.96
2023-01-18T07:00:25.063Z,17.12
2023-01-18T07:02:53.238Z,17.03
2023-01-18T07:05:20.673Z,17.17
2023-01-18T07:07:47.581Z,17.20
2023-01-18T07:10:16.656Z,17.01
2023-01-18T07:12:47.553Z,17.12
2023-01-18T07:15:21.642Z,17.42
2023-01-18T07:17:50.679Z,17.40
2023-01-18T07:20:18.105Z,17.55
2023-01-18T07:22:45.219Z,17.79
2023-01-18T07:25:13.578Z,17.46
2023-01-18T07:27:43.311Z,17.17
2023-01-18T07:30:14.911Z,17.19
2023-01-18T07:32:49.571Z,17.06
2023-01-18T07:35:24.065Z,17.06
2023-01-18T07:37:53.373Z,17.65
2023-01-18T07:40:21.667Z,17.57
2023-01-18T07:42:49.313Z,17.57
2023-01-18T07:45:16.387Z,17.83
2023-01-18T07:47:46.328Z,17.57
2023-01-18T07:50:14.498Z,17.87
2023-01-18T07:52:41.515Z,18.08
2023-01-18T07:55:09.181Z,18.38
2023-01-18T07:57:36.104Z,18.73
2023-01-18T08:00:03.281Z,18.47
2023-01-18T08:02:39.401Z,17.98
2023-01-18T08:05:07.190Z,18.07
2023-01-18T08:07:34.028Z,18.19
2023-01-18T08:10:00.980Z,17.84
2023-01-18T08:12:28.071Z,17.84
2023-01-18T08:14:57.443Z,18.08
2023-01-18T08:17:24.382Z,17.57
2023-01-18T08:19:51.266Z,17.49
2023-01-18T08:22:18.087Z,17.56
2023-01-18T08:24:44.977Z,17.98
2023-01-18T08:27:11.850Z,18.00
2023-01-18T08:29:38.738Z,18.11
2023-01-18T08:32:05.828Z,19.05
2023-01-18T08:34:32.679Z,20.47
2023-01-18T08:36:59.536Z,21.33
2023-01-18T08:39:26.430Z,22.33
2023-01-18T08:41:53.262Z,21.71
2023-01-18T08:44:20.520Z,21.46
2023-01-18T08:46:47.516Z,21.11
2023-01-18T08:49:14.648Z,21.52
2023-01-18T08:51:41.618Z,21.77
2023-01-18T08:54:08.839Z,21.26
2023-01-18T08:56:35.767Z,20.92
2023-01-18T08:59:02.886Z,21.49
2023-01-18T09:01:29.881Z,22.33
2023-01-18T09:03:58.612Z,23.06
2023-01-18T09:06:32.051Z,23.05
2023-01-18T09:08:59.618Z,23.34
2023-01-18T09:11:27.189Z,23.87
2023-01-18T09:14:00.807Z,23.69
2023-01-18T09:16:29.998Z,23.24
2023-01-18T09:18:58.452Z,23.64
2023-01-18T09:21:28.161Z,23.42
2023-01-18T09:23:55.267Z,23.29
2023-01-18T09:26:22.200Z,23.41
2023-01-18T09:28:52.537Z,23.45
2023-01-18T09:31:25.306Z,23.04
2023-01-18T09:33:53.934Z,23.09
2023-01-18T09:36:26.451Z,22.56
2023-01-18T09:38:55.168Z,22.94
2023-01-18T09:41:33.853Z,23.39
2023-01-18T09:44:07.846Z,22.82
2023-01-18T09:46:38.120Z,22.39
2023-01-18T09:49:08.392Z,22.66
2023-01-18T09:52:09.855Z,22.78
2023-01-18T09:54:58.664Z,23.06
2023-01-18T09:58:03.972Z,22.77
2023-01-18T10:00:37.287Z,21.96
2023-01-18T10:03:18.824Z,21.76
2023-01-18T10:05:52.695Z,21.52
2023-01-18T10:08:27.744Z,21.05
2023-01-18T10:11:02.650Z,20.88
2023-01-18T10:13:35.670Z,21.06
2023-01-18T10:16:03.308Z,20.64
2023-01-18T10:18:30.678Z,20.34
2023-01-18T10:21:06.488Z,20.60
2023-01-18T10:23:50.245Z,20.83
2023-01-18T10:26:26.433Z,20.85
2023-01-18T10:29:07.304Z,21.02
2023-01-18T10:31:57.320Z,21.70
2023-01-18T10:34:39.594Z,21.49
2023-01-18T10:37:17.504Z,21.29
2023-01-18T10:39:51.043Z,21.32
2023-01-18T10:42:23.939Z,20.97
2023-01-18T10:44:51.029Z,20.85
2023-01-18T10:47:19.761Z,20.88
2023-01-18T10:49:50.467Z,20.89
2023-01-18T10:52:25.899Z,20.32
2023-01-18T10:55:02.916Z,20.37
2023-01-18T10:57:37.420Z,21.06
2023-01-18T11:00:12.661Z,21.17
2023-01-18T11:02:40.465Z,21.58
2023-01-18T11:05:21.416Z,20.67
2023-01-18T11:07:48.436Z,20.46
2023-01-18T11:10:27.632Z,20.95
2023-01-18T11:12:54.947Z,20.47
2023-01-18T11:15:27.395Z,20.66
2023-01-18T11:17:58.082Z,20.87
2023-01-18T11:20:35.736Z,20.99
2023-01-18T11:23:14.849Z,20.58
2023-01-18T11:25:50.620Z,20.66
2023-01-18T11:28:23.608Z,20.56
2023-01-18T11:31:00.849Z,20.43
2023-01-18T11:33:29.486Z,20.54
2023-01-18T11:36:02.001Z,20.82
2023-01-18T11:38:34.275Z,21.22
2023-01-18T11:41:07.660Z,21.47
2023-01-18T11:43:37.788Z,21.50
2023-01-18T11:46:16.903Z,21.60
2023-01-18T11:48:58.115Z,21.66
2023-01-18T11:51:44.859Z,21.68
2023-01-18T11:54:38.857Z,20.73
2023-01-18T11:57:07.553Z,19.67
2023-01-18T11:59:38.022Z,19.71
2023-01-18T12:02:36.603Z,19.63
2023-01-18T12:05:29.786Z,19.75
2023-01-18T12:08:14.859Z,19.80
2023-01-18T12:10:46.577Z,19.87
2023-01-18T12:13:22.534Z,19.57
2023-01-18T12:16:17.129Z,19.50
2023-01-18T12:19:15.561Z,19.72
2023-01-18T12:22:09.728Z,19.69
2023-01-18T12:25:05.593Z,19.98
2023-01-18T12:27:57.299Z,19.73
2023-01-18T12:30:57.595Z,19.45
2023-01-18T12:33:46.295Z,19.71
2023-01-18T12:36:37.434Z,19.66
2023-01-18T12:39:33.924Z,19.59
2023-01-18T12:42:05.597Z,19.69
2023-01-18T12:45:21.962Z,19.73
2023-01-18T12:48:26.747Z,19.27
2023-01-18T12:50:56.462Z,19.24
2023-01-18T12:53:41.365Z,19.55
2023-01-18T12:56:15.489Z,19.89
2023-01-18T12:58:44.217Z,19.83
2023-01-18T13:01:20.435Z,20.41
2023-01-18T13:03:51.697Z,20.37
2023-01-18T13:06:21.281Z,20.11
2023-01-18T13:09:04.032Z,20.43
2023-01-18T13:11:35.657Z,20.37
2023-01-18T13:14:27.009Z,19.97
2023-01-18T13:17:11.547Z,19.55
2023-01-18T13:19:47.199Z,19.56
2023-01-18T13:22:44.283Z,19.45
2023-01-18T13:25:26.494Z,19.43
2023-01-18T13:28:18.851Z,19.19
2023-01-18T13:30:53.427Z,18.93
2023-01-18T13:33:26.407Z,18.92
2023-01-18T13:35:56.460Z,18.75
2023-01-18T13:38:40.794Z,18.80
2023-01-18T13:41:12.255Z,18.76
2023-01-18T13:43:45.179Z,18.59
2023-01-18T13:46:15.057Z,18.58
2023-01-18T13:48:51.153Z,18.61
2023-01-18T13:51:39.593Z,18.54
2023-01-18T13:54:29.771Z,18.59
2023-01-18T13:57:05.623Z,18.54
2023-01-18T13:59:36.171Z,18.32
2023-01-18T14:02:34.505Z,18.20
2023-01-18T14:05:07.433Z,18.28
2023-01-18T14:07:42.927Z,18.31
2023-01-18T14:10:26.545Z,17.98
2023-01-18T14:12:56.025Z,17.93
2023-01-18T14:15:27.891Z,18.05
2023-01-18T14:17:58.914Z,18.09
2023-01-18T14:20:35.129Z,18.18
2023-01-18T14:23:17.115Z,17.83
2023-01-18T14:26:06.781Z,17.99
2023-01-18T14:28:37.308Z,18.04
2023-01-18T14:31:07.821Z,17.92
2023-01-18T14:33:39.692Z,17.86
2023-01-18T14:36:08.591Z,17.98
2023-01-18T14:38:36.620Z,17.97
2023-01-18T14:41:07.496Z,17.78
2023-01-18T14:43:37.926Z,17.62
2023-01-18T14:46:10.231Z,17.70
2023-01-18T14:48:53.317Z,17.93
2023-01-18T14:51:23.328Z,17.66
2023-01-18T14:54:02.070Z,17.64
2023-01-18T14:56:32.037Z,17.86
2023-01-18T14:59:00.217Z,17.77
2023-01-18T15:01:31.996Z,18.07
2023-01-18T15:04:04.055Z,18.12
2023-01-18T15:06:40.147Z,18.23
2023-01-18T15:09:09.559Z,18.53
2023-01-18T15:11:38.693Z,18.11
2023-01-18T15:14:19.030Z,17.71
2023-01-18T15:16:48.790Z,17.76
2023-01-18T15:19:43.203Z,18.11
2023-01-18T15:22:16.085Z,18.26
2023-01-18T15:24:46.759Z,18.14
2023-01-18T15:27:19.901Z,17.48
2023-01-18T15:29:49.705Z,17.84
2023-01-18T15:32:18.129Z,17.72
2023-01-18T15:34:48.678Z,17.82
2023-01-18T15:37:24.589Z,17.87
2023-01-18T15:40:14.496Z,17.64
2023-01-18T15:42:49.668Z,17.63
2023-01-18T15:45:38.731Z,17.80
2023-01-18T15:48:22.942Z,17.40
2023-01-18T15:50:55.909Z,17.59
2023-01-18T15:53:45.977Z,17.48
2023-01-18T15:56:34.440Z,17.37
2023-01-18T15:59:06.868Z,17.23
2023-01-18T16:01:36.901Z,17.25
2023-01-18T16:04:21.569Z,17.57
2023-01-18T16:06:48.929Z,17.54
2023-01-18T16:09:16.134Z,17.67
2023-01-18T16:11:56.502Z,17.70
2023-01-18T16:14:29.341Z,17.73
2023-01-18T16:17:07.008Z,17.61
2023-01-18T16:19:36.154Z,17.50
2023-01-18T16:22:05.550Z,17.53
2023-01-18T16:25:01.639Z,17.54
2023-01-18T16:27:33.907Z,17.35
2023-01-18T16:30:08.216Z,17.51
2023-01-18T16:32:38.875Z,17.40
2023-01-18T16:35:09.961Z,17.21
2023-01-18T16:37:38.603Z,17.56
2023-01-18T16:40:06.519Z,17.56
2023-01-18T16:42:53.848Z,17.51
2023-01-18T16:45:20.740Z,17.51
2023-01-18T16:47:47.686Z,17.18
2023-01-18T16:50:15.838Z,16.89
2023-01-18T16:52:43.222Z,16.99
2023-01-18T16:55:13.776Z,17.10
2023-01-18T16:57:41.038Z,17.14
2023-01-18T17:00:11.560Z,17.08
2023-01-18T17:02:38.420Z,17.02
2023-01-18T17:05:05.709Z,17.17
2023-01-18T17:07:33.329Z,17.11
2023-01-18T17:10:00.203Z,17.31
2023-01-18T17:12:27.080Z,17.20
2023-01-18T17:14:53.994Z,17.24
2023-01-18T17:17:20.893Z,17.21
2023-01-18T17:19:48.158Z,17.09
2023-01-18T17:22:15.116Z,16.98
2023-01-18T17:24:42.006Z,16.91
2023-01-18T17:27:12.354Z,17.08
2023-01-18T17:29:39.213Z,16.91
2023-01-18T17:32:07.964Z,17.03
2023-01-18T17:34:34.896Z,17.19
2023-01-18T17:37:03.262Z,17.26
2023-01-18T17:39:43.551Z,17.28
2023-01-18T17:42:25.866Z,17.40
2023-01-18T17:45:03.308Z,17.00
2023-01-18T17:47:31.928Z,17.23
2023-01-18T17:49:59.268Z,17.25
2023-01-18T17:52:27.550Z,17.09
2023-01-18T17:54:54.535Z,17.21
2023-01-18T17:57:21.473Z,17.36
2023-01-18T17:59:49.126Z,17.04
2023-01-18T18:02:16.239Z,16.90
2023-01-18T18:04:43.157Z,17.17
2023-01-18T18:07:10.284Z,17.32
2023-01-18T18:09:40.717Z,17.36
2023-01-18T18:12:08.450Z,17.24
2023-01-18T18:14:37.427Z,17.20
2023-01-18T18:17:06.016Z,17.16
2023-01-18T18:19:33.944Z,17.12
2023-01-18T18:22:01.628Z,17.24
2023-01-18T18:24:28.583Z,17.18
2023-01-18T18:26:55.779Z,16.88
2023-01-18T18:29:22.693Z,17.03
2023-01-18T18:31:49.635Z,17.14
2023-01-18T18:34:16.611Z,16.96
2023-01-18T18:36:43.587Z,16.36
2023-01-18T18:39:10.569Z,16.87
2023-01-18T18:41:37.615Z,17.00
2023-01-18T18:44:05.393Z,17.05
2023-01-18T18:46:32.790Z,16.91
2023-01-18T18:48:59.957Z,16.70
2023-01-18T18:51:27.013Z,16.43
2023-01-18T18:53:53.950Z,16.65
2023-01-18T18:56:20.886Z,16.67
2023-01-18T18:58:49.111Z,16.77
2023-01-18T19:01:25.603Z,16.80
2023-01-18T19:03:54.051Z,16.73
2023-01-18T19:06:22.727Z,16.68
2023-01-18T19:08:50.676Z,16.73
2023-01-18T19:11:18.174Z,16.91
2023-01-18T19:13:47.081Z,17.02
2023-01-18T19:16:14.907Z,17.01
2023-01-18T19:18:41.909Z,16.97
2023-01-18T19:21:08.968Z,16.68
2023-01-18T19:23:35.933Z,16.14
2023-01-18T19:26:03.990Z,16.27
2023-01-18T19:28:31.065Z,16.33
2023-01-18T19:31:02.830Z,16.50
2023-01-18T19:33:29.794Z,16.31
2023-01-18T19:35:56.898Z,16.37
2023-01-18T19:38:23.967Z,16.53
2023-01-18T19:40:51.194Z,16.66
2023-01-18T19:43:18.154Z,16.51
2023-01-18T19:45:45.077Z,16.53
2023-01-18T19:48:12.058Z,16.17
2023-01-18T19:50:39.042Z,15.87
2023-01-18T19:53:06.038Z,15.90
2023-01-18T19:55:32.997Z,15.92
2023-01-18T19:58:01.668Z,16.19
2023-01-18T20:00:29.561Z,16.28
2023-01-18T20:02:56.583Z,16.36
2023-01-18T20:05:23.524Z,16.17
2023-01-18T20:07:51.370Z,16.41
2023-01-18T20:10:20.412Z,16.42
2023-01-18T20:12:48.554Z,16.52
2023-01-18T20:15:17.457Z,16.10
2023-01-18T20:17:44.570Z,15.85
2023-01-18T20:20:14.357Z,15.98
2023-01-18T20:22:46.236Z,16.24
2023-01-18T20:25:13.161Z,16.35
2023-01-18T20:27:40.143Z,16.36
2023-01-18T20:30:07.800Z,16.33
2023-01-18T20:32:34.754Z,16.22
2023-01-18T20:35:01.663Z,16.16
2023-01-18T20:37:28.561Z,16.05
2023-01-18T20:39:56.291Z,16.15
2023-01-18T20:42:23.281Z,16.12
2023-01-18T20:44:53.650Z,16.33
2023-01-18T20:47:20.574Z,16.32
2023-01-18T20:49:47.861Z,16.35
2023-01-18T20:52:14.833Z,16.37
2023-01-18T20:54:41.744Z,16.41
2023-01-18T20:57:09.564Z,16.46
2023-01-18T20:59:36.616Z,16.24
2023-01-18T21:02:03.788Z,16.32
2023-01-18T21:04:31.017Z,16.32
2023-01-18T21:06:58.095Z,16.44
2023-01-18T21:09:25.895Z,16.20
2023-01-18T21:11:52.805Z,16.21
2023-01-18T21:14:19.672Z,16.29
2023-01-18T21:16:47.098Z,16.12
2023-01-18T21:19:14.058Z,16.27
2023-01-18T21:21:40.988Z,16.15
2023-01-18T21:24:08.093Z,16.18
2023-01-18T21:26:36.168Z,16.13
2023-01-18T21:29:04.213Z,16.04
2023-01-18T21:31:31.502Z,16.29
2023-01-18T21:33:58.388Z,16.35
2023-01-18T21:36:25.285Z,16.17
2023-01-18T21:38:52.270Z,16.32
2023-01-18T21:41:38.053Z,15.95
2023-01-18T21:44:23.779Z,16.12
2023-01-18T21:46:52.166Z,16.04
2023-01-18T21:52:47.199Z,15.28
2023-01-18T21:55:15.401Z,15.25
2023-01-18T21:57:42.755Z,15.62
2023-01-18T22:00:10.833Z,15.94
2023-01-18T22:02:38.273Z,15.85
2023-01-18T22:05:05.840Z,16.00
2023-01-18T22:07:35.371Z,16.09
2023-01-18T22:10:06.049Z,16.06
2023-01-18T22:12:36.082Z,16.00
2023-01-18T22:15:04.634Z,15.94
2023-01-18T22:17:31.774Z,16.13
2023-01-18T22:19:59.046Z,15.94
2023-01-18T22:22:25.974Z,15.35
2023-01-18T22:24:52.918Z,15.22
2023-01-18T22:27:19.871Z,15.43
2023-01-18T22:29:46.794Z,15.64
2023-01-18T22:32:13.804Z,15.72
2023-01-18T22:34:40.718Z,15.71
2023-01-18T22:37:07.600Z,15.46
2023-01-18T22:39:34.456Z,15.65
2023-01-18T22:42:01.354Z,15.69
2023-01-18T22:44:28.349Z,15.74
2023-01-18T22:46:55.228Z,15.74
2023-01-18T22:49:22.228Z,15.67
2023-01-18T22:51:49.087Z,15.66
2023-01-18T22:54:16.184Z,15.55
2023-01-18T22:56:43.065Z,15.64
2023-01-18T22:59:10.068Z,15.81
2023-01-18T23:01:36.930Z,15.84
2023-01-18T23:04:04.725Z,15.68
2023-01-18T23:06:42.436Z,15.57
2023-01-18T23:09:10.300Z,15.46
2023-01-18T23:11:37.619Z,15.54
2023-01-18T23:14:23.915Z,15.57
2023-01-18T23:17:09.585Z,15.67
2023-01-18T23:19:36.514Z,15.65
2023-01-18T23:22:07.452Z,15.68
2023-01-18T23:24:36.799Z,15.49
2023-01-18T23:27:05.582Z,15.37
2023-01-18T23:29:32.430Z,15.59
2023-01-18T23:31:59.580Z,15.54
2023-01-18T23:34:26.781Z,15.56
2023-01-18T23:36:54.180Z,15.56
2023-01-18T23:39:39.693Z,15.63
2023-01-18T23:42:25.473Z,15.49
2023-01-18T23:45:10.985Z,15.39
2023-01-18T23:47:56.537Z,15.30
2023-01-18T23:50:42.074Z,15.46
2023-01-18T23:53:31.679Z,15.64
2023-01-18T23:55:59.284Z,15.60
2023-01-18T23:58:26.927Z,15.56
